Time;durP1;ratioP1;P1;durP2;ratioP2;P2;SDS_P1;SDS_P2;PMS_P1;PMS_P2;Temp;Humidity;BMP_temperature;BMP_pressure;BME280_temperature;BME280_humidity;BME280_pressure;Samples;Min_cycle;Max_cycle;Signal;HPM_P1;HPM_P2
2023/07/02 00:02:19;;;;;;;;;;;;;;;;;;5110329;28;19934;-68
2023/07/02 00:04:44;;;;;;;;;;;;;;;;;;5111119;28;19908;-68
2023/07/02 00:07:10;;;;;;;;;;;;;;;;;;5111436;28;19961;-68
2023/07/02 00:09:36;;;;;;;;;;;;;;;;;;5111696;28;19908;-68
2023/07/02 00:12:02;;;;;;;;;;;;;;;;;;5110879;28;20288;-68
2023/07/02 00:14:28;;;;;;;;;;;;;;;;;;5111321;28;19915;-68
2023/07/02 00:16:54;;;;;;;;;;;;;;;;;;5111330;28;20033;-68
2023/07/02 00:19:20;;;;;;;;;;;;;;;;;;5110803;28;19916;-68
2023/07/02 00:24:43;;;;;;;;;;;;;;;;;;5112516;27;19920;-67
2023/07/02 00:27:51;;;;;;;;;;;;;;;;;;5091934;28;19923;-68
2023/07/02 00:32:27;;;;;;;;;;;;;;;;;;5090972;27;20392;-68
2023/07/02 00:35:08;;;;;;;;;;;;;;;;;;5111917;27;19916;-68
2023/07/02 00:37:34;;;;;;;;;;;;;;;;;;5110344;28;19999;-68
2023/07/02 00:40:00;;;;;;;;;;;;;;;;;;5111477;28;19953;-68
2023/07/02 00:44:06;;;;;;;;;;;;;;;;;;5071345;28;19923;-68
2023/07/02 00:46:32;;;;;;;;;;;;;;;;;;5070766;28;20007;-67
2023/07/02 00:48:58;;;;;;;;;;;;;;;;;;5070971;28;19916;-67
2023/07/02 00:51:24;;;;;;;;;;;;;;;;;;5071185;28;19916;-68
2023/07/02 00:53:50;;;;;;;;;;;;;;;;;;5070807;28;19962;-68
2023/07/02 00:56:16;;;;;;;;;;;;;;;;;;5070901;28;19959;-67
2023/07/02 00:58:46;;;;;;;;;;;;;;;;;;5070828;28;19909;-67
2023/07/02 01:01:12;;;;;;;;;;;;;;;;;;5070619;28;19995;-67
2023/07/02 01:03:38;;;;;;;;;;;;;;;;;;5069401;28;19948;-67
2023/07/02 01:06:04;;;;;;;;;;;;;;;;;;5071067;28;19915;-68
2023/07/02 01:08:30;;;;;;;;;;;;;;;;;;5070233;28;20401;-67
2023/07/02 01:12:34;;;;;;;;;;;;;;;;;;5092142;27;20262;-67
2023/07/02 01:15:01;;;;;;;;;;;;;;;;;;5091453;28;19995;-67
2023/07/02 01:19:04;;;;;;;;;;;;;;;;;;5112354;27;20392;-67
2023/07/02 01:22:38;;;;;;;;;;;;;;;;;;5091083;28;19923;-68
2023/07/02 01:25:40;;;;;;;;;;;;;;;;;;5091872;28;19922;-67
2023/07/02 01:30:19;;;;;;;;;;;;;;;;;;5111417;27;19916;-68
2023/07/02 01:33:25;;;;;;;;;;;;;;;;;;5112499;27;19916;-67
2023/07/02 01:35:50;;;;;;;;;;;;;;;;;;5110093;28;20447;-67
2023/07/02 01:40:11;;;;;;;;;;;;;;;;;;5091908;27;19916;-67
2023/07/02 01:42:38;;;;;;;;;;;;;;;;;;5089626;28;20347;-67
2023/07/02 01:45:04;;;;;;;;;;;;;;;;;;5091860;28;19908;-67
2023/07/02 01:47:30;;;;;;;;;;;;;;;;;;5091174;28;20287;-67
2023/07/02 01:49:56;;;;;;;;;;;;;;;;;;5090777;28;19912;-68
2023/07/02 01:52:22;;;;;;;;;;;;;;;;;;5091230;28;19915;-67
2023/07/02 01:54:48;;;;;;;;;;;;;;;;;;5091637;28;19909;-67
2023/07/02 01:57:14;;;;;;;;;;;;;;;;;;5090597;28;19912;-68
2023/07/02 02:02:22;;;;;;;;;;;;;;;;;;5091488;27;19922;-67
2023/07/02 02:06:33;;;;;;;;;;;;;;;;;;5112513;27;19916;-67
2023/07/02 02:08:59;;;;;;;;;;;;;;;;;;5111674;28;20451;-67
2023/07/02 02:11:25;;;;;;;;;;;;;;;;;;5111185;28;19912;-67
2023/07/02 02:13:51;;;;;;;;;;;;;;;;;;5111661;28;19912;-68
2023/07/02 02:16:17;;;;;;;;;;;;;;;;;;5111561;28;19908;-68
2023/07/02 02:18:43;;;;;;;;;;;;;;;;;;5110988;28;19912;-68
2023/07/02 02:26:42;;;;;;;;;;;;;;;;;;5090999;27;19917;-68
2023/07/02 02:31:37;;;;;;;;;;;;;;;;;;5173656;27;20022;-67
2023/07/02 02:34:03;;;;;;;;;;;;;;;;;;5173673;27;20390;-67
2023/07/02 02:36:29;;;;;;;;;;;;;;;;;;5173904;27;19907;-67
2023/07/02 02:38:55;;;;;;;;;;;;;;;;;;5173145;27;19967;-67
2023/07/02 02:41:21;;;;;;;;;;;;;;;;;;5173549;27;20389;-67
2023/07/02 02:43:47;;;;;;;;;;;;;;;;;;5173637;27;19910;-67
2023/07/02 02:46:13;;;;;;;;;;;;;;;;;;5173056;27;19907;-67
2023/07/02 02:48:39;;;;;;;;;;;;;;;;;;5173635;27;19993;-67
2023/07/02 02:53:04;;;;;;;;;;;;;;;;;;5111641;27;19916;-67
2023/07/02 02:55:30;;;;;;;;;;;;;;;;;;5110409;28;20010;-67
2023/07/02 03:02:15;;;;;;;;;;;;;;;;;;5111952;27;20296;-67
2023/07/02 03:06:16;;;;;;;;;;;;;;;;;;5092221;28;19923;-67
2023/07/02 03:08:42;;;;;;;;;;;;;;;;;;5090866;28;20003;-68
2023/07/02 03:11:08;;;;;;;;;;;;;;;;;;5091622;28;19915;-68
2023/07/02 03:13:34;;;;;;;;;;;;;;;;;;5091228;28;19914;-68
2023/07/02 03:16:00;;;;;;;;;;;;;;;;;;5090797;28;19953;-68
2023/07/02 03:18:26;;;;;;;;;;;;;;;;;;5091159;28;19999;-68
2023/07/02 03:20:52;;;;;;;;;;;;;;;;;;5090744;28;19916;-68
2023/07/02 03:25:45;;;;;;;;;;;;;;;;;;5091824;28;19919;-67
2023/07/02 03:28:53;;;;;;;;;;;;;;;;;;5091074;27;20311;-68
2023/07/02 03:32:57;;;;;;;;;;;;;;;;;;5091447;28;19923;-67
2023/07/02 03:37:16;;;;;;;;;;;;;;;;;;5112349;27;19916;-68
2023/07/02 03:41:19;;;;;;;;;;;;;;;;;;5091661;27;19916;-67
2023/07/02 03:43:45;;;;;;;;;;;;;;;;;;5090915;28;20003;-67
2023/07/02 03:46:11;;;;;;;;;;;;;;;;;;5091469;28;19909;-68
2023/07/02 03:48:37;;;;;;;;;;;;;;;;;;5091230;28;19916;-68
2023/07/02 03:51:03;;;;;;;;;;;;;;;;;;5090815;28;19909;-68
2023/07/02 03:53:29;;;;;;;;;;;;;;;;;;5091146;28;19919;-67
2023/07/02 03:55:55;;;;;;;;;;;;;;;;;;5090738;28;19908;-67
2023/07/02 03:59:18;;;;;;;;;;;;;;;;;;5091711;28;20399;-68
2023/07/02 04:01:44;;;;;;;;;;;;;;;;;;5091387;28;20007;-68
2023/07/02 04:04:11;;;;;;;;;;;;;;;;;;5091049;28;19908;-68
2023/07/02 04:08:39;;;;;;;;;;;;;;;;;;5092083;28;19919;-67
2023/07/02 04:12:14;;;;;;;;;;;;;;;;;;5111793;27;19916;-67
2023/07/02 04:15:59;;;;;;;;;;;;;;;;;;5092181;27;19916;-67
2023/07/02 04:18:25;;;;;;;;;;;;;;;;;;5091080;28;19918;-67
2023/07/02 04:20:51;;;;;;;;;;;;;;;;;;5091266;28;20007;-68
2023/07/02 04:23:59;;;;;;;;;;;;;;;;;;5091065;27;19916;-67
2023/07/02 04:26:26;;;;;;;;;;;;;;;;;;5091431;28;20015;-67
2023/07/02 04:28:52;;;;;;;;;;;;;;;;;;5091346;28;19915;-68
2023/07/02 04:31:19;;;;;;;;;;;;;;;;;;5090777;28;19912;-68
2023/07/02 04:33:59;;;;;;;;;;;;;;;;;;5112080;27;19912;-68
2023/07/02 04:38:24;;;;;;;;;;;;;;;;;;5070973;28;19913;-68
2023/07/02 04:40:51;;;;;;;;;;;;;;;;;;5071113;28;20015;-67
2023/07/02 04:43:18;;;;;;;;;;;;;;;;;;5071011;28;19915;-68
2023/07/02 04:45:44;;;;;;;;;;;;;;;;;;5070643;28;19932;-67
2023/07/02 04:48:10;;;;;;;;;;;;;;;;;;5070946;28;19919;-67
2023/07/02 04:53:55;;;;;;;;;;;;;;;;;;5152546;27;20002;-67
2023/07/02 04:56:21;;;;;;;;;;;;;;;;;;5152849;27;19950;-67
2023/07/02 04:58:47;;;;;;;;;;;;;;;;;;5152689;27;19908;-67
2023/07/02 05:01:13;;;;;;;;;;;;;;;;;;5152372;27;19908;-67
2023/07/02 05:03:39;;;;;;;;;;;;;;;;;;5152717;27;19945;-67
2023/07/02 05:06:05;;;;;;;;;;;;;;;;;;5152619;27;19907;-67
2023/07/02 05:08:31;;;;;;;;;;;;;;;;;;5152210;27;19930;-67
2023/07/02 05:14:11;;;;;;;;;;;;;;;;;;5091572;28;19916;-67
2023/07/02 05:17:00;;;;;;;;;;;;;;;;;;5091865;27;19912;-68
2023/07/02 05:19:45;;;;;;;;;;;;;;;;;;5112442;27;19916;-67
2023/07/02 05:24:02;;;;;;;;;;;;;;;;;;5152986;27;19992;-68
2023/07/02 05:26:28;;;;;;;;;;;;;;;;;;5152884;27;19958;-67
2023/07/02 05:29:43;;;;;;;;;;;;;;;;;;5071413;28;19923;-67
2023/07/02 05:35:07;;;;;;;;;;;;;;;;;;5091103;28;20384;-67
2023/07/02 05:37:43;;;;;;;;;;;;;;;;;;5091980;28;19917;-67
2023/07/02 05:43:08;;;;;;;;;;;;;;;;;;5111515;27;19922;-68
2023/07/02 05:45:34;;;;;;;;;;;;;;;;;;5111674;28;20010;-68
2023/07/02 05:50:44;;;;;;;;;;;;;;;;;;5111296;27;20382;-67
2023/07/02 05:53:10;;;;;;;;;;;;;;;;;;5111994;28;19995;-67
2023/07/02 05:55:36;;;;;;;;;;;;;;;;;;5111144;28;19908;-67
2023/07/02 05:58:02;;;;;;;;;;;;;;;;;;5111566;28;19908;-67
2023/07/02 06:00:28;;;;;;;;;;;;;;;;;;5111496;28;20007;-67
2023/07/02 06:04:13;;;;;;;;;;;;;;;;;;5091093;28;20410;-68
2023/07/02 06:06:39;;;;;;;;;;;;;;;;;;5091325;28;20011;-68
2023/07/02 06:09:05;;;;;;;;;;;;;;;;;;5091204;28;20344;-68
2023/07/02 06:11:31;;;;;;;;;;;;;;;;;;5090849;28;20272;-68
2023/07/02 06:15:40;;;;;;;;;;;;;;;;;;5132677;27;20425;-68
2023/07/02 06:18:06;;;;;;;;;;;;;;;;;;5131864;28;19954;-68
2023/07/02 06:24:25;;;;;;;;;;;;;;;;;;5091041;27;19939;-68
2023/07/02 06:28:48;;;;;;;;;;;;;;;;;;5112352;27;19916;-67
2023/07/02 06:31:14;;;;;;;;;;;;;;;;;;5111474;28;20003;-67
2023/07/02 06:33:40;;;;;;;;;;;;;;;;;;5111592;28;19908;-67
2023/07/02 06:36:06;;;;;;;;;;;;;;;;;;5111614;28;19969;-68
2023/07/02 06:38:54;;;;;;;;;;;;;;;;;;5111554;27;19916;-68
2023/07/02 06:41:19;;;;;;;;;;;;;;;;;;5111707;28;19999;-68
2023/07/02 06:43:45;;;;;;;;;;;;;;;;;;5112009;28;20375;-68
2023/07/02 06:46:59;;;;;;;;;;;;;;;;;;5091612;27;19922;-68
2023/07/02 06:50:44;;;;;;;;;;;;;;;;;;5153074;27;19922;-68
2023/07/02 06:53:10;;;;;;;;;;;;;;;;;;5152461;27;19998;-68
2023/07/02 06:55:36;;;;;;;;;;;;;;;;;;5152793;27;20332;-68
2023/07/02 06:58:02;;;;;;;;;;;;;;;;;;5152749;27;20309;-67
2023/07/02 07:00:28;;;;;;;;;;;;;;;;;;5152289;27;19982;-68
2023/07/02 07:04:43;;;;;;;;;;;;;;;;;;5153429;27;20002;-68
2023/07/02 07:07:08;;;;;;;;;;;;;;;;;;5152440;27;19957;-68
2023/07/02 07:09:34;;;;;;;;;;;;;;;;;;5152837;27;20359;-68
2023/07/02 07:12:00;;;;;;;;;;;;;;;;;;5153030;27;20394;-68
2023/07/02 07:14:26;;;;;;;;;;;;;;;;;;5152333;27;19907;-68
2023/07/02 07:16:52;;;;;;;;;;;;;;;;;;5152591;27;19908;-68
2023/07/02 07:19:18;;;;;;;;;;;;;;;;;;5152593;27;19907;-68
2023/07/02 07:21:44;;;;;;;;;;;;;;;;;;5152106;27;20379;-68
2023/07/02 07:24:10;;;;;;;;;;;;;;;;;;5152367;27;19915;-68
2023/07/02 07:26:37;;;;;;;;;;;;;;;;;;5152469;27;19914;-68
2023/07/02 07:29:03;;;;;;;;;;;;;;;;;;5151875;27;19907;-68
2023/07/02 07:31:29;;;;;;;;;;;;;;;;;;5152378;27;19908;-68
2023/07/02 07:33:55;;;;;;;;;;;;;;;;;;5152179;27;19960;-68
2023/07/02 07:36:21;;;;;;;;;;;;;;;;;;5152293;27;19934;-68
2023/07/02 07:38:46;;;;;;;;;;;;;;;;;;5152277;27;19907;-68
2023/07/02 07:41:12;;;;;;;;;;;;;;;;;;5151761;27;19922;-68
2023/07/02 07:43:38;;;;;;;;;;;;;;;;;;5152366;27;19929;-68
2023/07/02 07:46:04;;;;;;;;;;;;;;;;;;5152151;27;19907;-68
2023/07/02 07:48:30;;;;;;;;;;;;;;;;;;5151796;27;20359;-69
2023/07/02 07:52:21;;;;;;;;;;;;;;;;;;5091412;27;19916;-68
2023/07/02 07:54:47;;;;;;;;;;;;;;;;;;5091326;28;19999;-68
2023/07/02 07:57:13;;;;;;;;;;;;;;;;;;5090880;28;20360;-68
2023/07/02 08:00:52;;;;;;;;;;;;;;;;;;5112221;27;19916;-68
2023/07/02 08:03:17;;;;;;;;;;;;;;;;;;5111249;28;20002;-70
2023/07/02 08:05:43;;;;;;;;;;;;;;;;;;5110309;28;19915;-68
2023/07/02 08:08:09;;;;;;;;;;;;;;;;;;5111549;28;19916;-68
2023/07/02 08:10:35;;;;;;;;;;;;;;;;;;5111204;28;19995;-68
2023/07/02 08:13:01;;;;;;;;;;;;;;;;;;5110268;28;19912;-68
2023/07/02 08:15:27;;;;;;;;;;;;;;;;;;5111370;28;19908;-68
2023/07/02 08:19:24;;;;;;;;;;;;;;;;;;5092188;27;19923;-68
2023/07/02 08:21:50;;;;;;;;;;;;;;;;;;5091324;28;19913;-68
2023/07/02 08:24:16;;;;;;;;;;;;;;;;;;5089523;28;19935;-68
2023/07/02 08:28:27;;;;;;;;;;;;;;;;;;5112521;27;19912;-68
2023/07/02 08:30:53;;;;;;;;;;;;;;;;;;5111317;28;20452;-68
2023/07/02 08:35:02;;;;;;;;;;;;;;;;;;5173931;27;20317;-68
2023/07/02 08:37:28;;;;;;;;;;;;;;;;;;5154700;27;20329;-67
2023/07/02 08:39:54;;;;;;;;;;;;;;;;;;5173653;27;19911;-67
2023/07/02 08:42:20;;;;;;;;;;;;;;;;;;5173510;27;19984;-68
2023/07/02 08:44:47;;;;;;;;;;;;;;;;;;5173260;27;19941;-68
2023/07/02 08:47:13;;;;;;;;;;;;;;;;;;5173733;27;19911;-68
2023/07/02 08:49:39;;;;;;;;;;;;;;;;;;5173728;27;19911;-68
2023/07/02 08:52:05;;;;;;;;;;;;;;;;;;5173091;27;19907;-68
2023/07/02 08:54:31;;;;;;;;;;;;;;;;;;5173289;27;19929;-68
2023/07/02 08:56:57;;;;;;;;;;;;;;;;;;5173363;27;19907;-68
2023/07/02 08:59:23;;;;;;;;;;;;;;;;;;5173232;27;20362;-68
2023/07/02 09:01:49;;;;;;;;;;;;;;;;;;5173247;27;19911;-68
2023/07/02 09:04:15;;;;;;;;;;;;;;;;;;5173417;27;19907;-68
2023/07/02 09:06:41;;;;;;;;;;;;;;;;;;5172787;27;19994;-68
2023/07/02 09:09:41;;;;;;;;;;;;;;;;;;5091598;27;19916;-68
2023/07/02 09:12:07;;;;;;;;;;;;;;;;;;5091393;28;19935;-68
2023/07/02 09:14:33;;;;;;;;;;;;;;;;;;5090859;28;19909;-68
2023/07/02 09:16:59;;;;;;;;;;;;;;;;;;5091255;28;19912;-68
2023/07/02 09:19:25;;;;;;;;;;;;;;;;;;5090804;28;19915;-68
2023/07/02 09:24:11;;;;;;;;;;;;;;;;;;5111778;27;19916;-68
2023/07/02 09:26:37;;;;;;;;;;;;;;;;;;5111327;28;20012;-68
2023/07/02 09:29:03;;;;;;;;;;;;;;;;;;5111915;28;19908;-68
2023/07/02 09:31:29;;;;;;;;;;;;;;;;;;5111898;28;20383;-68
2023/07/02 09:33:55;;;;;;;;;;;;;;;;;;5111214;28;19955;-68
2023/07/02 09:36:21;;;;;;;;;;;;;;;;;;5111681;28;19919;-68
2023/07/02 09:38:47;;;;;;;;;;;;;;;;;;5111488;28;19908;-68
2023/07/02 09:41:13;;;;;;;;;;;;;;;;;;5111010;28;19908;-67
2023/07/02 09:43:39;;;;;;;;;;;;;;;;;;5111368;28;20023;-68
2023/07/02 09:46:05;;;;;;;;;;;;;;;;;;5111310;28;19951;-67
2023/07/02 09:48:31;;;;;;;;;;;;;;;;;;5110850;28;19909;-68
2023/07/02 09:50:57;;;;;;;;;;;;;;;;;;5111232;28;19908;-68
2023/07/02 09:53:23;;;;;;;;;;;;;;;;;;5111166;28;19907;-67
2023/07/02 09:55:49;;;;;;;;;;;;;;;;;;5110781;28;19936;-68
2023/07/02 09:58:15;;;;;;;;;;;;;;;;;;5111107;28;19912;-68
2023/07/02 10:00:41;;;;;;;;;;;;;;;;;;5111146;28;19908;-67
2023/07/02 10:03:06;;;;;;;;;;;;;;;;;;5110546;28;20015;-67
2023/07/02 10:05:32;;;;;;;;;;;;;;;;;;5110981;28;19915;-67
2023/07/02 10:07:58;;;;;;;;;;;;;;;;;;5110920;28;19919;-68
2023/07/02 10:11:38;;;;;;;;;;;;;;;;;;5112435;27;19916;-68
2023/07/02 10:14:04;;;;;;;;;;;;;;;;;;5111756;28;20026;-68
2023/07/02 10:16:31;;;;;;;;;;;;;;;;;;5111341;28;19961;-68
2023/07/02 10:18:57;;;;;;;;;;;;;;;;;;5111544;28;19912;-69
2023/07/02 10:21:24;;;;;;;;;;;;;;;;;;5111696;28;20021;-69
2023/07/02 10:23:50;;;;;;;;;;;;;;;;;;5111131;28;20306;-68
2023/07/02 10:26:16;;;;;;;;;;;;;;;;;;5111575;28;19908;-69
2023/07/02 10:28:42;;;;;;;;;;;;;;;;;;5111707;28;19958;-68
2023/07/02 10:31:08;;;;;;;;;;;;;;;;;;5110928;28;19971;-68
2023/07/02 10:33:34;;;;;;;;;;;;;;;;;;5111611;28;19908;-68
2023/07/02 10:36:00;;;;;;;;;;;;;;;;;;5111382;28;19908;-68
2023/07/02 10:38:29;;;;;;;;;;;;;;;;;;5110850;28;19954;-68
2023/07/02 10:40:56;;;;;;;;;;;;;;;;;;5109905;28;19961;-68
2023/07/02 10:43:22;;;;;;;;;;;;;;;;;;5109904;28;20332;-68
2023/07/02 10:45:47;;;;;;;;;;;;;;;;;;5110912;28;19999;-68
2023/07/02 10:48:13;;;;;;;;;;;;;;;;;;5109890;28;19957;-68
2023/07/02 10:50:39;;;;;;;;;;;;;;;;;;5109804;28;19916;-69
2023/07/02 10:53:05;;;;;;;;;;;;;;;;;;5110626;28;19908;-69
2023/07/02 10:55:31;;;;;;;;;;;;;;;;;;5111007;28;19929;-68
2023/07/02 10:57:57;;;;;;;;;;;;;;;;;;5110627;28;19912;-68
2023/07/02 11:00:23;;;;;;;;;;;;;;;;;;5110852;28;19958;-69
2023/07/02 11:02:49;;;;;;;;;;;;;;;;;;5110778;28;19915;-68
2023/07/02 11:05:15;;;;;;;;;;;;;;;;;;5110389;28;19969;-68
2023/07/02 11:07:41;;;;;;;;;;;;;;;;;;5110724;28;19908;-68
2023/07/02 11:10:07;;;;;;;;;;;;;;;;;;5110356;28;19920;-68
2023/07/02 11:12:33;;;;;;;;;;;;;;;;;;5110236;28;20291;-68
2023/07/02 11:14:59;;;;;;;;;;;;;;;;;;5110818;28;19941;-68
2023/07/02 11:17:25;;;;;;;;;;;;;;;;;;5110484;28;20003;-68
2023/07/02 11:19:51;;;;;;;;;;;;;;;;;;5110026;28;19915;-68
2023/07/02 11:22:17;;;;;;;;;;;;;;;;;;5100691;28;19908;-68
2023/07/02 11:24:43;;;;;;;;;;;;;;;;;;5096777;28;20268;-68
2023/07/02 11:27:09;;;;;;;;;;;;;;;;;;5096652;28;20436;-68
2023/07/02 11:29:35;;;;;;;;;;;;;;;;;;5097018;28;20306;-68
2023/07/02 11:32:01;;;;;;;;;;;;;;;;;;5096923;28;19912;-68
2023/07/02 11:34:27;;;;;;;;;;;;;;;;;;5096214;28;20386;-68
2023/07/02 11:36:53;;;;;;;;;;;;;;;;;;5096668;28;19915;-68
2023/07/02 11:39:19;;;;;;;;;;;;;;;;;;5096844;28;19909;-68
2023/07/02 11:41:45;;;;;;;;;;;;;;;;;;5096140;28;19915;-68
2023/07/02 11:44:11;;;;;;;;;;;;;;;;;;5096455;28;19954;-68
2023/07/02 11:46:37;;;;;;;;;;;;;;;;;;5096998;28;19912;-68
2023/07/02 11:49:08;;;;;;;;;;;;;;;;;;5095987;28;19911;-68
2023/07/02 11:51:34;;;;;;;;;;;;;;;;;;5096479;28;20363;-68
2023/07/02 11:54:00;;;;;;;;;;;;;;;;;;5096273;28;19908;-68
2023/07/02 11:56:26;;;;;;;;;;;;;;;;;;5095843;28;19916;-68
2023/07/02 11:58:52;;;;;;;;;;;;;;;;;;5096665;28;19948;-68
2023/07/02 12:01:17;;;;;;;;;;;;;;;;;;5095613;28;20257;-68
2023/07/02 12:03:43;;;;;;;;;;;;;;;;;;5095985;28;19908;-69
2023/07/02 12:06:09;;;;;;;;;;;;;;;;;;5096007;28;19908;-68
2023/07/02 12:08:35;;;;;;;;;;;;;;;;;;5095494;28;19912;-68
2023/07/02 12:11:01;;;;;;;;;;;;;;;;;;5095697;28;19920;-68
2023/07/02 12:13:27;;;;;;;;;;;;;;;;;;5095766;28;20433;-68
2023/07/02 12:15:53;;;;;;;;;;;;;;;;;;5095540;28;20292;-68
2023/07/02 12:18:19;;;;;;;;;;;;;;;;;;5095761;28;20036;-68
2023/07/02 12:20:45;;;;;;;;;;;;;;;;;;5094426;28;19908;-68
2023/07/02 12:23:11;;;;;;;;;;;;;;;;;;5095245;28;19912;-68
2023/07/02 12:25:37;;;;;;;;;;;;;;;;;;5095615;28;20387;-68
2023/07/02 12:28:03;;;;;;;;;;;;;;;;;;5095542;28;19908;-68
2023/07/02 12:30:29;;;;;;;;;;;;;;;;;;5095016;28;19923;-68
2023/07/02 12:32:55;;;;;;;;;;;;;;;;;;5093393;28;19947;-68
2023/07/02 12:35:21;;;;;;;;;;;;;;;;;;5095548;28;19908;-68
2023/07/02 12:37:47;;;;;;;;;;;;;;;;;;5094991;28;19909;-68
2023/07/02 12:40:13;;;;;;;;;;;;;;;;;;5095382;28;19914;-67
2023/07/02 12:42:39;;;;;;;;;;;;;;;;;;5095276;28;19915;-69
2023/07/02 12:45:05;;;;;;;;;;;;;;;;;;5094841;28;19915;-68
2023/07/02 12:47:31;;;;;;;;;;;;;;;;;;5095403;28;19908;-68
2023/07/02 12:49:56;;;;;;;;;;;;;;;;;;5093808;28;19923;-69
2023/07/02 12:52:22;;;;;;;;;;;;;;;;;;5094764;28;19908;-68
2023/07/02 12:54:48;;;;;;;;;;;;;;;;;;5095095;28;19908;-68
2023/07/02 12:57:14;;;;;;;;;;;;;;;;;;5095083;28;19916;-68
2023/07/02 12:59:40;;;;;;;;;;;;;;;;;;5094593;28;19909;-68
2023/07/02 13:02:06;;;;;;;;;;;;;;;;;;5093696;28;19908;-68
2023/07/02 13:04:32;;;;;;;;;;;;;;;;;;5094593;28;19948;-69
2023/07/02 13:06:58;;;;;;;;;;;;;;;;;;5094897;28;19912;-68
2023/07/02 13:09:24;;;;;;;;;;;;;;;;;;5094722;28;19916;-68
2023/07/02 13:11:50;;;;;;;;;;;;;;;;;;5094712;28;19999;-68
2023/07/02 13:14:17;;;;;;;;;;;;;;;;;;5093485;28;19908;-69
2023/07/02 13:16:43;;;;;;;;;;;;;;;;;;5094687;28;19908;-70
2023/07/02 13:19:09;;;;;;;;;;;;;;;;;;5094184;28;20003;-69
2023/07/02 13:21:35;;;;;;;;;;;;;;;;;;5094666;28;19912;-69
2023/07/02 13:24:00;;;;;;;;;;;;;;;;;;5094622;28;20337;-69
2023/07/02 13:26:26;;;;;;;;;;;;;;;;;;5092930;28;19915;-70
2023/07/02 13:28:52;;;;;;;;;;;;;;;;;;5093254;28;19915;-70
2023/07/02 13:31:18;;;;;;;;;;;;;;;;;;5094641;28;19916;-68
2023/07/02 13:33:46;;;;;;;;;;;;;;;;;;5094276;28;20414;-68
2023/07/02 13:36:12;;;;;;;;;;;;;;;;;;5094344;28;19969;-68
2023/07/02 13:38:38;;;;;;;;;;;;;;;;;;5094330;28;20411;-69
2023/07/02 13:41:03;;;;;;;;;;;;;;;;;;5094116;28;19908;-69
2023/07/02 13:43:29;;;;;;;;;;;;;;;;;;5094195;28;19908;-69
2023/07/02 13:45:55;;;;;;;;;;;;;;;;;;5094227;28;19908;-69
2023/07/02 13:48:21;;;;;;;;;;;;;;;;;;5093775;28;19912;-69
2023/07/02 13:50:47;;;;;;;;;;;;;;;;;;5094026;28;20442;-69
2023/07/02 13:53:13;;;;;;;;;;;;;;;;;;5094068;28;20019;-69
2023/07/02 13:55:39;;;;;;;;;;;;;;;;;;5093744;28;20017;-68
2023/07/02 13:58:05;;;;;;;;;;;;;;;;;;5094021;28;20288;-67
2023/07/02 14:00:31;;;;;;;;;;;;;;;;;;5094323;28;20406;-67
2023/07/02 14:02:57;;;;;;;;;;;;;;;;;;5093586;28;20424;-69
2023/07/02 14:05:23;;;;;;;;;;;;;;;;;;5094031;28;19908;-69
2023/07/02 14:07:49;;;;;;;;;;;;;;;;;;5093558;28;19988;-69
2023/07/02 14:10:15;;;;;;;;;;;;;;;;;;5093598;28;19977;-69
2023/07/02 14:12:41;;;;;;;;;;;;;;;;;;5093870;28;19909;-69
2023/07/02 14:15:07;;;;;;;;;;;;;;;;;;5093465;28;19919;-69
2023/07/02 14:17:33;;;;;;;;;;;;;;;;;;5092563;28;20074;-69
2023/07/02 14:19:59;;;;;;;;;;;;;;;;;;5093808;28;19915;-69
2023/07/02 14:22:25;;;;;;;;;;;;;;;;;;5093342;28;19912;-69
2023/07/02 14:24:51;;;;;;;;;;;;;;;;;;5094051;28;19934;-69
2023/07/02 14:27:17;;;;;;;;;;;;;;;;;;5093719;28;19908;-69
2023/07/02 14:29:42;;;;;;;;;;;;;;;;;;5093259;28;19920;-69
2023/07/02 14:32:08;;;;;;;;;;;;;;;;;;5093840;28;19908;-69
2023/07/02 14:34:35;;;;;;;;;;;;;;;;;;5093721;28;19916;-68
2023/07/02 14:37:01;;;;;;;;;;;;;;;;;;5093320;28;19908;-69
2023/07/02 14:39:26;;;;;;;;;;;;;;;;;;5093636;28;19908;-69
2023/07/02 14:41:52;;;;;;;;;;;;;;;;;;5094112;28;19908;-69
2023/07/02 14:44:18;;;;;;;;;;;;;;;;;;5093288;28;20316;-70
2023/07/02 14:46:44;;;;;;;;;;;;;;;;;;5093585;28;19915;-69
2023/07/02 14:49:10;;;;;;;;;;;;;;;;;;5093616;28;19915;-69
2023/07/02 14:51:36;;;;;;;;;;;;;;;;;;5093195;28;19916;-69
2023/07/02 14:54:03;;;;;;;;;;;;;;;;;;5093473;28;19912;-68
2023/07/02 14:56:29;;;;;;;;;;;;;;;;;;5092879;28;19909;-68
2023/07/02 14:58:55;;;;;;;;;;;;;;;;;;5096946;28;20327;-68
2023/07/02 15:01:21;;;;;;;;;;;;;;;;;;5097291;28;20364;-68
2023/07/02 15:03:47;;;;;;;;;;;;;;;;;;5097292;28;19947;-68
2023/07/02 15:06:13;;;;;;;;;;;;;;;;;;5096772;28;20387;-69
2023/07/02 15:08:39;;;;;;;;;;;;;;;;;;5097176;28;20376;-69
2023/07/02 15:11:05;;;;;;;;;;;;;;;;;;5096544;28;20269;-68
2023/07/02 15:13:31;;;;;;;;;;;;;;;;;;5097034;28;19916;-68
2023/07/02 15:15:57;;;;;;;;;;;;;;;;;;5097134;28;19908;-68
2023/07/02 15:18:23;;;;;;;;;;;;;;;;;;5096729;28;19939;-69
2023/07/02 15:20:49;;;;;;;;;;;;;;;;;;5096928;28;19961;-68
2023/07/02 15:23:15;;;;;;;;;;;;;;;;;;5096870;28;19915;-69
2023/07/02 15:25:41;;;;;;;;;;;;;;;;;;5096436;28;19909;-68
2023/07/02 15:28:07;;;;;;;;;;;;;;;;;;5096714;28;20002;-68
2023/07/02 15:30:33;;;;;;;;;;;;;;;;;;5095386;28;20320;-68
2023/07/02 15:32:59;;;;;;;;;;;;;;;;;;5096396;28;20425;-68
2023/07/02 15:35:25;;;;;;;;;;;;;;;;;;5096621;28;20419;-68
2023/07/02 15:37:51;;;;;;;;;;;;;;;;;;5096459;28;20360;-68
2023/07/02 15:40:17;;;;;;;;;;;;;;;;;;5096202;28;19915;-69
2023/07/02 15:42:43;;;;;;;;;;;;;;;;;;5096651;28;20331;-68
2023/07/02 15:45:09;;;;;;;;;;;;;;;;;;5096435;28;19962;-69
2023/07/02 15:47:35;;;;;;;;;;;;;;;;;;5094770;28;20396;-68
2023/07/02 15:50:01;;;;;;;;;;;;;;;;;;5095129;28;19952;-69
2023/07/02 15:52:27;;;;;;;;;;;;;;;;;;5096396;28;20036;-69
2023/07/02 15:54:53;;;;;;;;;;;;;;;;;;5094904;28;19908;-68
2023/07/02 15:57:19;;;;;;;;;;;;;;;;;;5096278;28;19998;-69
2023/07/02 15:59:45;;;;;;;;;;;;;;;;;;5096336;28;19931;-68
2023/07/02 16:02:11;;;;;;;;;;;;;;;;;;5094580;28;19963;-69
2023/07/02 16:04:39;;;;;;;;;;;;;;;;;;5096102;28;19908;-69
2023/07/02 16:07:05;;;;;;;;;;;;;;;;;;5095940;28;19908;-70
2023/07/02 16:09:31;;;;;;;;;;;;;;;;;;5095387;28;19919;-69
2023/07/02 16:11:57;;;;;;;;;;;;;;;;;;5095713;28;19916;-69
2023/07/02 16:14:23;;;;;;;;;;;;;;;;;;5095443;28;19999;-67
2023/07/02 16:16:53;;;;;;;;;;;;;;;;;;5095814;28;19915;-70
2023/07/02 16:19:19;;;;;;;;;;;;;;;;;;5096037;28;19908;-68
2023/07/02 16:21:47;;;;;;;;;;;;;;;;;;5095300;28;19953;-69
2023/07/02 16:24:13;;;;;;;;;;;;;;;;;;5095933;28;19939;-69
2023/07/02 16:26:39;;;;;;;;;;;;;;;;;;5095901;28;19908;-69
2023/07/02 16:29:05;;;;;;;;;;;;;;;;;;5095115;28;19912;-69
2023/07/02 16:31:31;;;;;;;;;;;;;;;;;;5095499;28;19916;-68
2023/07/02 16:33:57;;;;;;;;;;;;;;;;;;5095457;28;19908;-68
2023/07/02 16:36:23;;;;;;;;;;;;;;;;;;5095055;28;19915;-68
2023/07/02 16:38:50;;;;;;;;;;;;;;;;;;5095428;28;19915;-68
2023/07/02 16:41:17;;;;;;;;;;;;;;;;;;5095371;28;19912;-68
2023/07/02 16:43:43;;;;;;;;;;;;;;;;;;5095042;28;19908;-68
2023/07/02 16:46:09;;;;;;;;;;;;;;;;;;5095560;28;20375;-68
2023/07/02 16:48:34;;;;;;;;;;;;;;;;;;5095213;28;20257;-68
2023/07/02 16:51:00;;;;;;;;;;;;;;;;;;5094739;28;19916;-69
2023/07/02 16:53:39;;;;;;;;;;;;;;;;;;5092170;27;19917;-69
2023/07/02 16:56:05;;;;;;;;;;;;;;;;;;5091344;28;20007;-68
2023/07/02 16:58:31;;;;;;;;;;;;;;;;;;5090843;28;19909;-68
2023/07/02 17:00:56;;;;;;;;;;;;;;;;;;5091492;28;20010;-68
2023/07/02 17:03:22;;;;;;;;;;;;;;;;;;5091355;28;19916;-69
2023/07/02 17:05:48;;;;;;;;;;;;;;;;;;5090748;28;19946;-69
2023/07/02 17:10:47;;;;;;;;;;;;;;;;;;5091096;27;19916;-68
2023/07/02 17:13:13;;;;;;;;;;;;;;;;;;5106982;28;20011;-68
2023/07/02 17:15:39;;;;;;;;;;;;;;;;;;5091467;28;19909;-68
2023/07/02 17:18:05;;;;;;;;;;;;;;;;;;5091228;28;19914;-68
2023/07/02 17:20:31;;;;;;;;;;;;;;;;;;5091453;28;19908;-69
2023/07/02 17:22:57;;;;;;;;;;;;;;;;;;5091126;28;19992;-69
2023/07/02 17:25:23;;;;;;;;;;;;;;;;;;5090789;28;20399;-69
2023/07/02 17:27:49;;;;;;;;;;;;;;;;;;5091378;28;20348;-69
2023/07/02 17:30:16;;;;;;;;;;;;;;;;;;5090891;28;19916;-69
2023/07/02 17:32:41;;;;;;;;;;;;;;;;;;5090648;28;19908;-69
2023/07/02 17:35:57;;;;;;;;;;;;;;;;;;5092190;27;19918;-68
2023/07/02 17:38:23;;;;;;;;;;;;;;;;;;5091354;28;20011;-69
2023/07/02 17:40:48;;;;;;;;;;;;;;;;;;5089565;28;19954;-67
2023/07/02 17:43:14;;;;;;;;;;;;;;;;;;5091193;28;19915;-68
2023/07/02 17:45:40;;;;;;;;;;;;;;;;;;5089824;28;19919;-68
2023/07/02 17:48:06;;;;;;;;;;;;;;;;;;5090758;28;19909;-68
2023/07/02 17:50:32;;;;;;;;;;;;;;;;;;5091082;28;19908;-68
2023/07/02 17:52:58;;;;;;;;;;;;;;;;;;5090572;28;19908;-68
2023/07/02 17:55:24;;;;;;;;;;;;;;;;;;5090933;28;20073;-68
2023/07/02 17:57:50;;;;;;;;;;;;;;;;;;5090828;28;19909;-69
2023/07/02 18:00:16;;;;;;;;;;;;;;;;;;5090468;28;19916;-69
2023/07/02 18:02:42;;;;;;;;;;;;;;;;;;5090818;28;19930;-68
2023/07/02 18:05:08;;;;;;;;;;;;;;;;;;5089461;28;19908;-70
2023/07/02 18:07:34;;;;;;;;;;;;;;;;;;5089130;28;19920;-69
2023/07/02 18:10:00;;;;;;;;;;;;;;;;;;5090702;28;20007;-69
2023/07/02 18:12:28;;;;;;;;;;;;;;;;;;5090613;28;19914;-69
2023/07/02 18:14:54;;;;;;;;;;;;;;;;;;5090176;28;20385;-70
2023/07/02 18:17:20;;;;;;;;;;;;;;;;;;5090971;28;19931;-69
2023/07/02 18:19:46;;;;;;;;;;;;;;;;;;5090582;28;20360;-69